Time;durP1;ratioP1;P1;durP2;ratioP2;P2;SDS_P1;SDS_P2;PMS_P1;PMS_P2;Temp;Humidity;BMP_temperature;BMP_pressure;BME280_temperature;BME280_humidity;BME280_pressure;Samples;Min_cycle;Max_cycle;Signal;HPM_P1;HPM_P2
2023/07/29 00:00:15;;;;;;;2.10;1.10;;;;;;;;;;5034047;28;20441;-53
2023/07/29 00:02:44;;;;;;;2.30;1.23;;;;;;;;;;5033550;28;20482;-56
2023/07/29 00:05:11;;;;;;;2.00;1.33;;;;;;;;;;5034260;28;20565;-55
2023/07/29 00:07:39;;;;;;;2.30;1.13;;;;;;;;;;5034231;28;20473;-54
2023/07/29 00:10:07;;;;;;;1.80;0.80;;;;;;;;;;5033780;28;20474;-56
2023/07/29 00:12:35;;;;;;;2.30;1.03;;;;;;;;;;5034016;28;20442;-55
2023/07/29 00:15:02;;;;;;;2.27;1.17;;;;;;;;;;5033960;28;20616;-56
2023/07/29 00:17:29;;;;;;;3.80;1.20;;;;;;;;;;5034073;28;20450;-55
2023/07/29 00:19:56;;;;;;;2.70;1.40;;;;;;;;;;5033164;28;20469;-55
2023/07/29 00:22:24;;;;;;;2.03;1.03;;;;;;;;;;5033976;28;21001;-53
2023/07/29 00:24:57;;;;;;;2.77;1.33;;;;;;;;;;5033794;28;20769;-56
2023/07/29 00:27:24;;;;;;;3.07;1.40;;;;;;;;;;5033985;28;20946;-54
2023/07/29 00:29:51;;;;;;;2.73;1.33;;;;;;;;;;5032752;28;20442;-55
2023/07/29 00:32:18;;;;;;;2.77;1.20;;;;;;;;;;5033694;28;20520;-55
2023/07/29 00:34:45;;;;;;;3.07;1.50;;;;;;;;;;5033552;28;20818;-56
2023/07/29 00:37:13;;;;;;;2.73;1.23;;;;;;;;;;5033653;28;21044;-55
2023/07/29 00:39:40;;;;;;;4.60;1.50;;;;;;;;;;5033448;28;20828;-55
2023/07/29 00:42:10;;;;;;;2.50;1.00;;;;;;;;;;5033601;28;20477;-58
2023/07/29 00:44:37;;;;;;;2.17;1.10;;;;;;;;;;5033317;28;20532;-57
2023/07/29 00:47:06;;;;;;;2.60;1.10;;;;;;;;;;5033370;28;20517;-54
2023/07/29 00:49:34;;;;;;;3.90;1.23;;;;;;;;;;5033454;28;20476;-53
2023/07/29 00:52:01;;;;;;;2.20;1.20;;;;;;;;;;5031553;28;20887;-51
2023/07/29 00:54:28;;;;;;;2.63;1.30;;;;;;;;;;5028830;28;20888;-53
2023/07/29 00:56:55;;;;;;;4.77;1.27;;;;;;;;;;5025709;28;20500;-53
2023/07/29 00:59:24;;;;;;;2.70;1.27;;;;;;;;;;5026309;28;20533;-55
2023/07/29 01:01:51;;;;;;;5.30;1.17;;;;;;;;;;5030900;28;20561;-53
2023/07/29 01:04:18;;;;;;;2.60;1.10;;;;;;;;;;5030054;28;20521;-53
2023/07/29 01:06:49;;;;;;;3.17;1.10;;;;;;;;;;5024270;28;20470;-54
2023/07/29 01:09:23;;;;;;;3.33;0.93;;;;;;;;;;5022416;28;20434;-53
2023/07/29 01:11:54;;;;;;;2.60;1.30;;;;;;;;;;5021778;28;20466;-56
2023/07/29 01:14:27;;;;;;;2.00;0.80;;;;;;;;;;5021865;28;20521;-53
2023/07/29 01:16:58;;;;;;;2.57;1.20;;;;;;;;;;5022593;28;20518;-54
2023/07/29 01:19:36;;;;;;;2.40;1.10;;;;;;;;;;5020645;28;20887;-53
2023/07/29 01:22:04;;;;;;;2.17;1.10;;;;;;;;;;5021483;28;20501;-54
2023/07/29 01:24:32;;;;;;;1.90;1.10;;;;;;;;;;5023475;28;20509;-53
2023/07/29 01:27:01;;;;;;;2.20;1.07;;;;;;;;;;5022757;28;20777;-53
2023/07/29 01:29:28;;;;;;;3.87;1.30;;;;;;;;;;5020203;28;20471;-56
2023/07/29 01:31:57;;;;;;;2.27;1.20;;;;;;;;;;5022348;28;20513;-53
2023/07/29 01:34:26;;;;;;;2.40;1.30;;;;;;;;;;5023078;28;20994;-53
2023/07/29 01:36:56;;;;;;;1.93;1.03;;;;;;;;;;5022090;28;20522;-53
2023/07/29 01:39:24;;;;;;;2.63;1.20;;;;;;;;;;5021254;28;20473;-56
2023/07/29 01:41:52;;;;;;;2.60;1.37;;;;;;;;;;5023269;28;20530;-57
2023/07/29 01:44:20;;;;;;;2.17;0.90;;;;;;;;;;5022887;28;20475;-55
2023/07/29 01:46:47;;;;;;;3.47;1.30;;;;;;;;;;5021202;28;20538;-55
2023/07/29 01:49:15;;;;;;;2.30;1.03;;;;;;;;;;5021791;28;20466;-56
2023/07/29 01:51:43;;;;;;;3.40;1.40;;;;;;;;;;5022614;28;20436;-56
2023/07/29 01:54:10;;;;;;;3.13;1.20;;;;;;;;;;5020989;28;20467;-55
2023/07/29 01:56:38;;;;;;;1.83;0.93;;;;;;;;;;5021701;28;20458;-57
2023/07/29 01:59:06;;;;;;;2.20;1.30;;;;;;;;;;5022458;28;20446;-55
2023/07/29 02:01:33;;;;;;;2.60;1.30;;;;;;;;;;5021391;28;20467;-55
2023/07/29 02:04:01;;;;;;;2.43;1.00;;;;;;;;;;5020566;28;20478;-55
2023/07/29 02:06:28;;;;;;;1.90;1.10;;;;;;;;;;5073558;23;20599;-58
2023/07/29 02:08:56;;;;;;;1.90;0.67;;;;;;;;;;5011269;28;20453;-59
2023/07/29 02:11:27;;;;;;;2.77;1.07;;;;;;;;;;5011168;28;20518;-58
2023/07/29 02:13:54;;;;;;;2.30;1.10;;;;;;;;;;5009576;28;20870;-58
2023/07/29 02:16:23;;;;;;;2.00;1.13;;;;;;;;;;5006175;28;20510;-58
2023/07/29 02:18:51;;;;;;;2.30;1.30;;;;;;;;;;5002037;28;20450;-58
2023/07/29 02:21:18;;;;;;;3.23;1.00;;;;;;;;;;5000986;28;20475;-58
2023/07/29 02:23:45;;;;;;;2.43;1.27;;;;;;;;;;5000125;28;20566;-58
2023/07/29 02:26:13;;;;;;;3.30;1.03;;;;;;;;;;5001871;28;20837;-58
2023/07/29 02:28:40;;;;;;;2.63;1.33;;;;;;;;;;5000976;28;20807;-58
2023/07/29 02:31:16;;;;;;;2.30;1.30;;;;;;;;;;5000484;28;20519;-58
2023/07/29 02:33:45;;;;;;;3.17;1.60;;;;;;;;;;5000713;28;20437;-59
2023/07/29 02:36:13;;;;;;;2.63;1.20;;;;;;;;;;5001909;28;20971;-58
2023/07/29 02:38:40;;;;;;;2.50;1.00;;;;;;;;;;5001379;28;20535;-58
2023/07/29 02:41:09;;;;;;;2.07;1.03;;;;;;;;;;4999738;28;20534;-58
2023/07/29 02:43:36;;;;;;;3.20;1.13;;;;;;;;;;5005544;28;20864;-58
2023/07/29 02:46:03;;;;;;;2.53;1.20;;;;;;;;;;5011431;28;20503;-58
2023/07/29 02:48:31;;;;;;;2.93;1.30;;;;;;;;;;5011216;28;20882;-58
2023/07/29 02:50:59;;;;;;;6.60;1.50;;;;;;;;;;5011001;28;20508;-57
2023/07/29 02:53:27;;;;;;;2.00;1.10;;;;;;;;;;5011145;28;20530;-57
2023/07/29 02:55:54;;;;;;;2.43;1.23;;;;;;;;;;5011465;28;20491;-58
2023/07/29 02:58:21;;;;;;;3.50;1.40;;;;;;;;;;5011262;28;20446;-58
2023/07/29 03:00:48;;;;;;;2.90;1.73;;;;;;;;;;5010083;28;20458;-57
2023/07/29 03:03:16;;;;;;;2.47;1.23;;;;;;;;;;5009185;28;20507;-58
2023/07/29 03:05:43;;;;;;;2.33;1.03;;;;;;;;;;5009639;28;20864;-58
2023/07/29 03:08:13;;;;;;;4.27;1.63;;;;;;;;;;5009621;28;20534;-58
2023/07/29 03:10:40;;;;;;;3.30;1.70;;;;;;;;;;5009593;28;20451;-59
2023/07/29 03:13:07;;;;;;;4.17;1.37;;;;;;;;;;5009782;28;20535;-58
2023/07/29 03:15:34;;;;;;;2.60;1.10;;;;;;;;;;5009854;28;20559;-58
2023/07/29 03:18:02;;;;;;;2.30;1.50;;;;;;;;;;5010629;28;20451;-56
2023/07/29 03:20:29;;;;;;;2.20;1.27;;;;;;;;;;5008569;28;20451;-57
2023/07/29 03:22:56;;;;;;;2.73;1.30;;;;;;;;;;5002483;28;20894;-57
2023/07/29 03:25:25;;;;;;;2.50;1.40;;;;;;;;;;5005443;28;20538;-58
2023/07/29 03:27:52;;;;;;;2.63;1.60;;;;;;;;;;5008744;28;20533;-57
2023/07/29 03:30:21;;;;;;;4.67;1.60;;;;;;;;;;4991352;28;20628;-57
2023/07/29 03:32:49;;;;;;;2.20;1.33;;;;;;;;;;4995410;28;20909;-57
2023/07/29 03:35:16;;;;;;;1.90;0.97;;;;;;;;;;4994822;28;20555;-58
2023/07/29 03:37:43;;;;;;;5.20;1.37;;;;;;;;;;4995514;28;20499;-58
2023/07/29 03:40:11;;;;;;;2.10;1.10;;;;;;;;;;5005567;28;20475;-58
2023/07/29 03:42:40;;;;;;;3.30;1.20;;;;;;;;;;5001901;28;20607;-58
2023/07/29 03:45:07;;;;;;;2.80;1.50;;;;;;;;;;4990366;28;20500;-58
2023/07/29 03:47:35;;;;;;;2.27;1.43;;;;;;;;;;5006148;28;20828;-58
2023/07/29 03:50:02;;;;;;;1.93;1.00;;;;;;;;;;5015725;28;20467;-57
2023/07/29 03:52:29;;;;;;;2.30;1.30;;;;;;;;;;5009042;28;20472;-57
2023/07/29 03:54:56;;;;;;;3.67;1.80;;;;;;;;;;5009590;28;20475;-57
2023/07/29 03:57:24;;;;;;;2.10;1.10;;;;;;;;;;5010021;28;20531;-57
2023/07/29 03:59:52;;;;;;;2.33;1.00;;;;;;;;;;5000156;28;20440;-57
2023/07/29 04:02:20;;;;;;;2.50;1.43;;;;;;;;;;5005815;28;20443;-57
2023/07/29 04:04:48;;;;;;;2.30;1.40;;;;;;;;;;5009786;28;20918;-58
2023/07/29 04:07:15;;;;;;;3.97;1.70;;;;;;;;;;5009437;28;20886;-59
2023/07/29 04:09:43;;;;;;;2.27;1.10;;;;;;;;;;5009365;28;20547;-58
2023/07/29 04:12:11;;;;;;;3.03;1.87;;;;;;;;;;5009726;28;20473;-58
2023/07/29 04:14:38;;;;;;;2.23;1.30;;;;;;;;;;5009410;28;20768;-57
2023/07/29 04:17:07;;;;;;;4.67;1.80;;;;;;;;;;5009804;28;20550;-58
2023/07/29 04:19:34;;;;;;;2.93;1.73;;;;;;;;;;5009123;28;20802;-58
2023/07/29 04:22:02;;;;;;;2.77;1.30;;;;;;;;;;4997650;28;20738;-57
2023/07/29 04:24:29;;;;;;;3.03;1.57;;;;;;;;;;4991510;28;21067;-57
2023/07/29 04:26:57;;;;;;;2.47;1.30;;;;;;;;;;4990181;28;20550;-58
2023/07/29 04:29:24;;;;;;;2.30;1.20;;;;;;;;;;4990090;28;21014;-58
2023/07/29 04:31:51;;;;;;;3.60;1.43;;;;;;;;;;4990707;28;20802;-57
2023/07/29 04:34:20;;;;;;;2.27;1.23;;;;;;;;;;4991578;28;20444;-57
2023/07/29 04:36:48;;;;;;;3.20;1.57;;;;;;;;;;4990650;28;20507;-57
2023/07/29 04:39:15;;;;;;;2.50;1.37;;;;;;;;;;5009315;28;20521;-57
2023/07/29 04:41:42;;;;;;;2.30;1.27;;;;;;;;;;5011161;28;20443;-58
2023/07/29 04:44:10;;;;;;;2.50;1.20;;;;;;;;;;5001513;28;20562;-57
2023/07/29 04:46:38;;;;;;;2.27;1.20;;;;;;;;;;4993881;28;20499;-58
2023/07/29 04:49:05;;;;;;;3.10;1.83;;;;;;;;;;5008786;28;20439;-58
2023/07/29 04:51:34;;;;;;;2.30;1.40;;;;;;;;;;5011773;28;20470;-58
2023/07/29 04:54:01;;;;;;;2.77;1.60;;;;;;;;;;5012390;28;20526;-58
2023/07/29 04:56:29;;;;;;;3.37;1.10;;;;;;;;;;5011672;28;20844;-57
2023/07/29 04:58:56;;;;;;;2.00;1.10;;;;;;;;;;5013166;28;20542;-58
2023/07/29 05:01:23;;;;;;;3.40;1.50;;;;;;;;;;5013021;28;20475;-58
2023/07/29 05:03:51;;;;;;;3.10;1.83;;;;;;;;;;5006560;28;20467;-58
2023/07/29 05:06:18;;;;;;;2.70;1.73;;;;;;;;;;4993435;28;20479;-58
2023/07/29 05:08:47;;;;;;;3.30;2.47;;;;;;;;;;4994456;28;20535;-58
2023/07/29 05:11:14;;;;;;;3.50;1.70;;;;;;;;;;5012664;28;20515;-58
2023/07/29 05:13:43;;;;;;;3.67;1.80;;;;;;;;;;5009305;28;20531;-58
2023/07/29 05:16:11;;;;;;;3.87;1.53;;;;;;;;;;5012365;28;20478;-58
2023/07/29 05:18:38;;;;;;;2.43;1.40;;;;;;;;;;4998137;28;20476;-58
2023/07/29 05:21:05;;;;;;;3.43;1.90;;;;;;;;;;4993208;28;20522;-58
2023/07/29 05:23:33;;;;;;;3.47;1.47;;;;;;;;;;4994144;28;20483;-57
2023/07/29 05:26:01;;;;;;;3.70;1.40;;;;;;;;;;4992938;28;20882;-57
2023/07/29 05:28:29;;;;;;;3.40;1.27;;;;;;;;;;4993087;28;20534;-57
2023/07/29 05:30:56;;;;;;;2.80;1.60;;;;;;;;;;4992903;28;20534;-58
2023/07/29 05:33:23;;;;;;;2.23;1.20;;;;;;;;;;4993916;28;20483;-58
2023/07/29 05:35:50;;;;;;;2.40;1.40;;;;;;;;;;4993124;28;20598;-57
2023/07/29 05:38:18;;;;;;;5.60;1.50;;;;;;;;;;4992820;28;20526;-58
2023/07/29 05:40:45;;;;;;;2.73;1.47;;;;;;;;;;4993656;28;20526;-58
2023/07/29 05:43:14;;;;;;;2.63;1.40;;;;;;;;;;4994021;28;20539;-58
2023/07/29 05:45:41;;;;;;;2.40;1.40;;;;;;;;;;4995528;28;20467;-58
2023/07/29 05:48:08;;;;;;;2.50;1.50;;;;;;;;;;5010716;28;20526;-57
2023/07/29 05:50:36;;;;;;;3.20;1.53;;;;;;;;;;4994099;28;20488;-58
2023/07/29 05:53:03;;;;;;;3.07;1.27;;;;;;;;;;4991081;28;20548;-58
2023/07/29 05:55:30;;;;;;;2.23;1.17;;;;;;;;;;4993797;28;20548;-58
2023/07/29 05:57:57;;;;;;;3.40;1.60;;;;;;;;;;4992838;28;20519;-59
2023/07/29 06:00:26;;;;;;;2.80;1.70;;;;;;;;;;4992415;28;20502;-58
2023/07/29 06:02:53;;;;;;;3.23;2.40;;;;;;;;;;5001190;28;20443;-58
2023/07/29 06:05:20;;;;;;;2.20;1.27;;;;;;;;;;4995291;28;20877;-57
2023/07/29 06:07:48;;;;;;;2.83;1.50;;;;;;;;;;5005891;28;20446;-58
2023/07/29 06:10:17;;;;;;;2.37;1.40;;;;;;;;;;5000316;28;20447;-59
2023/07/29 06:12:44;;;;;;;3.00;1.47;;;;;;;;;;4993414;28;20955;-58
2023/07/29 06:15:12;;;;;;;3.00;1.70;;;;;;;;;;4993754;28;20546;-57
2023/07/29 06:17:40;;;;;;;2.70;1.40;;;;;;;;;;5008058;28;20455;-58
2023/07/29 06:20:08;;;;;;;3.30;1.30;;;;;;;;;;4992949;28;20480;-59
2023/07/29 06:22:35;;;;;;;3.50;1.33;;;;;;;;;;4992146;28;20445;-59
2023/07/29 06:25:02;;;;;;;2.97;1.80;;;;;;;;;;4991708;28;20566;-58
2023/07/29 06:27:30;;;;;;;3.40;2.00;;;;;;;;;;4992333;28;20444;-57
2023/07/29 06:29:57;;;;;;;4.40;1.60;;;;;;;;;;4991764;28;20864;-57
2023/07/29 06:32:24;;;;;;;3.07;1.57;;;;;;;;;;4993103;28;20823;-57
2023/07/29 06:34:54;;;;;;;3.73;1.67;;;;;;;;;;4992588;28;20472;-58
2023/07/29 06:37:21;;;;;;;3.40;1.50;;;;;;;;;;4991593;28;20448;-58
2023/07/29 06:39:48;;;;;;;2.83;1.90;;;;;;;;;;5004309;28;20446;-59
2023/07/29 06:42:16;;;;;;;4.40;1.47;;;;;;;;;;5010812;28;20479;-58
2023/07/29 06:44:45;;;;;;;2.30;1.50;;;;;;;;;;5011500;28;20506;-57
2023/07/29 06:47:12;;;;;;;2.40;1.40;;;;;;;;;;4994661;28;20451;-58
2023/07/29 06:49:40;;;;;;;2.73;1.80;;;;;;;;;;5007992;28;20891;-58
2023/07/29 06:52:09;;;;;;;2.70;1.43;;;;;;;;;;4990506;28;20539;-59
2023/07/29 06:54:36;;;;;;;2.80;1.70;;;;;;;;;;4989829;28;20475;-58
2023/07/29 06:57:03;;;;;;;2.50;1.73;;;;;;;;;;4990321;28;20563;-58
2023/07/29 06:59:30;;;;;;;2.40;1.40;;;;;;;;;;4991752;28;20479;-57
2023/07/29 07:01:59;;;;;;;2.57;1.13;;;;;;;;;;4990620;28;20527;-57
2023/07/29 07:04:26;;;;;;;2.50;1.00;;;;;;;;;;4992294;28;20481;-58
2023/07/29 07:06:54;;;;;;;4.13;1.60;;;;;;;;;;5009086;28;20903;-58
2023/07/29 07:09:22;;;;;;;4.67;1.60;;;;;;;;;;5008988;28;20994;-59
2023/07/29 07:11:49;;;;;;;3.50;1.57;;;;;;;;;;4990826;28;21036;-58
2023/07/29 07:14:17;;;;;;;3.87;1.57;;;;;;;;;;5000288;28;20510;-58
2023/07/29 07:16:44;;;;;;;3.00;1.80;;;;;;;;;;5009038;28;20471;-58
2023/07/29 07:19:11;;;;;;;2.60;1.60;;;;;;;;;;5010606;28;20534;-58
2023/07/29 07:21:38;;;;;;;2.40;1.73;;;;;;;;;;5009229;28;20443;-59
2023/07/29 07:24:06;;;;;;;2.67;1.40;;;;;;;;;;5008013;28;20518;-59
2023/07/29 07:26:34;;;;;;;2.97;1.73;;;;;;;;;;4991461;28;20498;-59
2023/07/29 07:29:02;;;;;;;2.60;1.50;;;;;;;;;;4992552;28;20472;-58
2023/07/29 07:31:29;;;;;;;2.90;1.40;;;;;;;;;;5010745;28;20443;-58
2023/07/29 07:33:56;;;;;;;2.30;1.50;;;;;;;;;;5004202;28;20531;-57
2023/07/29 07:36:23;;;;;;;4.67;1.93;;;;;;;;;;4998615;28;20459;-58
2023/07/29 07:38:51;;;;;;;2.53;1.73;;;;;;;;;;4990796;28;20502;-56
2023/07/29 07:41:18;;;;;;;3.83;1.90;;;;;;;;;;5006638;28;20447;-56
2023/07/29 07:43:47;;;;;;;2.80;1.30;;;;;;;;;;4998143;28;20439;-56
2023/07/29 07:46:14;;;;;;;3.00;1.63;;;;;;;;;;5006504;28;20534;-56
2023/07/29 07:48:41;;;;;;;2.93;1.80;;;;;;;;;;4997609;28;20472;-56
2023/07/29 07:51:12;;;;;;;2.77;1.60;;;;;;;;;;4995069;28;20538;-56
2023/07/29 07:53:40;;;;;;;2.53;1.47;;;;;;;;;;4995197;28;20447;-57
2023/07/29 07:56:07;;;;;;;3.17;2.10;;;;;;;;;;5000494;28;20848;-56
2023/07/29 07:58:34;;;;;;;2.23;1.23;;;;;;;;;;5001430;28;21048;-56
2023/07/29 08:01:06;;;;;;;4.80;1.90;;;;;;;;;;5000057;28;20468;-56
2023/07/29 08:03:34;;;;;;;4.40;2.07;;;;;;;;;;4998722;28;20440;-56
2023/07/29 08:06:01;;;;;;;3.67;1.90;;;;;;;;;;5053194;23;21028;-55
2023/07/29 08:08:28;;;;;;;3.20;1.63;;;;;;;;;;4990014;28;20531;-55
2023/07/29 08:10:56;;;;;;;3.63;1.70;;;;;;;;;;4988661;28;20511;-54
2023/07/29 08:13:24;;;;;;;3.13;1.67;;;;;;;;;;4990062;28;20487;-56
2023/07/29 08:15:51;;;;;;;2.83;1.80;;;;;;;;;;4986732;28;20464;-55
2023/07/29 08:18:20;;;;;;;4.43;2.37;;;;;;;;;;4974485;28;20473;-55
2023/07/29 08:20:55;;;;;;;3.70;1.93;;;;;;;;;;4971400;28;20943;-55
2023/07/29 08:23:22;;;;;;;3.83;2.00;;;;;;;;;;4974712;28;20444;-55
2023/07/29 08:25:52;;;;;;;2.50;1.30;;;;;;;;;;4974628;28;20935;-53
2023/07/29 08:28:20;;;;;;;2.33;1.60;;;;;;;;;;4974336;28;20536;-55
2023/07/29 08:30:47;;;;;;;2.87;1.90;;;;;;;;;;4974741;28;20504;-53
2023/07/29 08:33:14;;;;;;;3.00;1.53;;;;;;;;;;4974621;28;20920;-54
2023/07/29 08:35:43;;;;;;;2.60;1.50;;;;;;;;;;4973752;28;20544;-55
2023/07/29 08:38:10;;;;;;;7.73;1.80;;;;;;;;;;4974837;28;20532;-55
2023/07/29 08:40:39;;;;;;;3.03;1.83;;;;;;;;;;4974021;28;20477;-56
2023/07/29 08:43:06;;;;;;;3.77;1.70;;;;;;;;;;4974374;28;20538;-55
2023/07/29 08:45:36;;;;;;;2.60;1.50;;;;;;;;;;4974419;28;20619;-55
2023/07/29 08:48:04;;;;;;;3.00;1.70;;;;;;;;;;4971842;28;20539;-56
2023/07/29 08:50:34;;;;;;;2.73;1.53;;;;;;;;;;4970215;28;20577;-55
2023/07/29 08:53:02;;;;;;;2.80;1.80;;;;;;;;;;4976097;28;20468;-54
2023/07/29 08:55:31;;;;;;;2.80;1.50;;;;;;;;;;4970947;28;20984;-55
2023/07/29 08:57:58;;;;;;;2.60;1.40;;;;;;;;;;4970557;28;20484;-54
2023/07/29 09:00:27;;;;;;;3.43;2.10;;;;;;;;;;4962459;28;20484;-55
2023/07/29 09:02:54;;;;;;;3.20;1.83;;;;;;;;;;4969381;28;20480;-55
2023/07/29 09:05:22;;;;;;;2.90;1.80;;;;;;;;;;4968912;28;21028;-54
2023/07/29 09:07:49;;;;;;;3.10;1.80;;;;;;;;;;4970749;28;20457;-56
2023/07/29 09:10:18;;;;;;;3.63;1.60;;;;;;;;;;4970468;28;20536;-54
2023/07/29 09:12:45;;;;;;;4.50;2.43;;;;;;;;;;4971352;28;20666;-53
2023/07/29 09:15:13;;;;;;;2.77;2.00;;;;;;;;;;4971064;28;20481;-55
2023/07/29 09:17:42;;;;;;;3.27;1.73;;;;;;;;;;4970181;28;20504;-54
2023/07/29 09:20:11;;;;;;;2.60;1.60;;;;;;;;;;4960581;28;20528;-55
2023/07/29 09:22:38;;;;;;;3.10;1.70;;;;;;;;;;4955575;28;20535;-54
2023/07/29 09:25:06;;;;;;;3.00;1.83;;;;;;;;;;4969339;28;20512;-53
2023/07/29 09:27:38;;;;;;;3.67;1.90;;;;;;;;;;4968228;28;20552;-55
2023/07/29 09:30:06;;;;;;;2.80;2.00;;;;;;;;;;4968710;28;20774;-56
2023/07/29 09:32:33;;;;;;;2.80;1.77;;;;;;;;;;4970175;28;20485;-54
2023/07/29 09:35:00;;;;;;;3.53;1.70;;;;;;;;;;4965814;28;20500;-55
2023/07/29 09:37:28;;;;;;;3.07;1.77;;;;;;;;;;4965325;28;20583;-54
2023/07/29 09:39:55;;;;;;;3.20;1.70;;;;;;;;;;4970362;28;21009;-55
2023/07/29 09:42:23;;;;;;;3.20;1.90;;;;;;;;;;4970373;28;20515;-54
2023/07/29 09:44:53;;;;;;;2.80;2.00;;;;;;;;;;4970035;28;21014;-55
2023/07/29 09:47:21;;;;;;;2.80;1.90;;;;;;;;;;4970427;28;20469;-56
2023/07/29 09:49:48;;;;;;;2.67;1.97;;;;;;;;;;4968791;28;20968;-55
2023/07/29 09:52:16;;;;;;;3.70;1.90;;;;;;;;;;4964983;28;20536;-54
2023/07/29 09:54:44;;;;;;;3.40;2.00;;;;;;;;;;4969783;28;20433;-54
2023/07/29 09:57:12;;;;;;;3.80;2.10;;;;;;;;;;4968327;28;20473;-54
2023/07/29 09:59:39;;;;;;;2.43;1.80;;;;;;;;;;4965858;28;20527;-54
2023/07/29 10:02:11;;;;;;;3.40;1.97;;;;;;;;;;4963388;28;20969;-54
2023/07/29 10:04:38;;;;;;;2.77;1.60;;;;;;;;;;4965815;28;20540;-55
2023/07/29 10:07:07;;;;;;;2.60;1.73;;;;;;;;;;4962955;28;20541;-55
2023/07/29 10:09:35;;;;;;;3.30;2.07;;;;;;;;;;4962145;28;20472;-54
2023/07/29 10:12:02;;;;;;;3.00;1.80;;;;;;;;;;4970334;28;20955;-54
2023/07/29 10:14:30;;;;;;;3.30;2.70;;;;;;;;;;4968841;28;20875;-53
2023/07/29 10:16:57;;;;;;;3.10;2.20;;;;;;;;;;4965182;28;20957;-54
2023/07/29 10:19:26;;;;;;;3.00;2.07;;;;;;;;;;4969656;28;20449;-55
2023/07/29 10:21:54;;;;;;;3.70;2.43;;;;;;;;;;4969117;28;20569;-55
2023/07/29 10:24:28;;;;;;;3.40;2.20;;;;;;;;;;4970301;28;20531;-55
2023/07/29 10:26:58;;;;;;;5.03;2.30;;;;;;;;;;4970019;28;20488;-53
2023/07/29 10:29:26;;;;;;;2.87;1.80;;;;;;;;;;4969199;28;20473;-54
2023/07/29 10:31:54;;;;;;;2.60;1.80;;;;;;;;;;4969396;28;20449;-53
2023/07/29 10:34:22;;;;;;;2.90;1.90;;;;;;;;;;4969519;28;20528;-56
2023/07/29 10:36:51;;;;;;;3.77;2.00;;;;;;;;;;4969248;28;20500;-55
2023/07/29 10:39:18;;;;;;;4.17;2.50;;;;;;;;;;4967706;28;20455;-55
2023/07/29 10:42:02;;;;;;;2.53;1.73;;;;;;;;;;4968973;28;20527;-55
2023/07/29 10:44:50;;;;;;;3.73;2.10;;;;;;;;;;4969270;28;20897;-55
2023/07/29 10:47:18;;;;;;;3.03;2.13;;;;;;;;;;4968709;28;20475;-55
2023/07/29 10:49:46;;;;;;;3.37;2.40;;;;;;;;;;4964069;28;20545;-55
2023/07/29 10:52:16;;;;;;;3.23;1.63;;;;;;;;;;4949372;28;20453;-56
2023/07/29 10:54:44;;;;;;;3.37;2.00;;;;;;;;;;4950351;29;20577;-55
2023/07/29 10:57:15;;;;;;;3.57;2.60;;;;;;;;;;4950287;28;20508;-55
2023/07/29 10:59:42;;;;;;;6.03;3.60;;;;;;;;;;4958447;28;20445;-56
2023/07/29 11:02:18;;;;;;;4.60;3.07;;;;;;;;;;4968338;28;20476;-55
2023/07/29 11:04:49;;;;;;;4.33;2.40;;;;;;;;;;4969433;28;20448;-55
2023/07/29 11:07:26;;;;;;;7.43;2.57;;;;;;;;;;4968982;28;20559;-56
2023/07/29 11:10:04;;;;;;;3.17;1.97;;;;;;;;;;4968567;28;20480;-55
2023/07/29 11:12:42;;;;;;;3.23;2.27;;;;;;;;;;4969155;28;20961;-55
2023/07/29 11:15:17;;;;;;;3.23;2.03;;;;;;;;;;4968592;28;20535;-55
2023/07/29 11:17:45;;;;;;;3.30;2.43;;;;;;;;;;4969189;28;20884;-55
2023/07/29 11:20:13;;;;;;;2.77;1.63;;;;;;;;;;4959918;28;20453;-55
2023/07/29 11:22:41;;;;;;;3.17;2.30;;;;;;;;;;4949423;28;20545;-55
2023/07/29 11:25:10;;;;;;;3.20;2.30;;;;;;;;;;4967357;28;20491;-55
2023/07/29 11:27:37;;;;;;;2.67;2.10;;;;;;;;;;4967120;28;20483;-55
2023/07/29 11:30:06;;;;;;;3.33;2.20;;;;;;;;;;4967430;28;20559;-56
2023/07/29 11:32:33;;;;;;;3.83;2.53;;;;;;;;;;4968487;28;20448;-54
2023/07/29 11:35:03;;;;;;;3.50;1.77;;;;;;;;;;4968600;28;20528;-55
2023/07/29 11:37:30;;;;;;;3.60;2.27;;;;;;;;;;4969187;28;20469;-55
2023/07/29 11:39:59;;;;;;;3.30;2.13;;;;;;;;;;4968359;28;20528;-53
2023/07/29 11:42:27;;;;;;;2.90;2.00;;;;;;;;;;4968744;28;20543;-55
2023/07/29 11:44:55;;;;;;;3.10;2.20;;;;;;;;;;4968769;28;20445;-55
2023/07/29 11:47:22;;;;;;;2.60;1.87;;;;;;;;;;4968373;28;21147;-54
2023/07/29 11:49:49;;;;;;;3.00;1.90;;;;;;;;;;4955606;28;20529;-55
2023/07/29 11:52:18;;;;;;;3.17;2.10;;;;;;;;;;4948451;28;20477;-55
2023/07/29 11:54:46;;;;;;;2.90;2.13;;;;;;;;;;4949081;28;20441;-55
2023/07/29 11:57:15;;;;;;;2.90;2.10;;;;;;;;;;4949079;28;20465;-55
2023/07/29 11:59:42;;;;;;;3.07;2.03;;;;;;;;;;4949170;29;20508;-55
2023/07/29 12:02:11;;;;;;;3.37;1.97;;;;;;;;;;4949430;29;20516;-55
2023/07/29 12:04:39;;;;;;;3.53;2.27;;;;;;;;;;4949404;29;20454;-56
2023/07/29 12:07:07;;;;;;;3.00;2.10;;;;;;;;;;4948891;28;20525;-55
2023/07/29 12:09:35;;;;;;;2.90;1.70;;;;;;;;;;4949400;28;21297;-55
2023/07/29 12:12:02;;;;;;;10.93;2.40;;;;;;;;;;4966907;28;20524;-55
2023/07/29 12:14:31;;;;;;;3.90;1.90;;;;;;;;;;4967038;28;20453;-54
2023/07/29 12:17:01;;;;;;;4.87;3.20;;;;;;;;;;4967218;28;20465;-54
2023/07/29 12:19:33;;;;;;;9.90;6.77;;;;;;;;;;4964098;28;20896;-55
2023/07/29 12:22:00;;;;;;;3.27;2.20;;;;;;;;;;4961369;28;20849;-54
2023/07/29 12:24:28;;;;;;;4.50;2.50;;;;;;;;;;4968266;28;20544;-56
2023/07/29 12:26:55;;;;;;;3.27;2.30;;;;;;;;;;4968010;28;20887;-56
2023/07/29 12:29:22;;;;;;;3.13;1.73;;;;;;;;;;4962736;28;20540;-55
2023/07/29 12:31:58;;;;;;;2.80;1.80;;;;;;;;;;4965237;28;20536;-56
2023/07/29 12:34:26;;;;;;;3.27;2.30;;;;;;;;;;4968149;28;20872;-55
2023/07/29 12:36:55;;;;;;;2.50;1.80;;;;;;;;;;4967602;28;20461;-54
2023/07/29 12:39:23;;;;;;;4.10;2.57;;;;;;;;;;4957877;28;20448;-54
2023/07/29 12:41:51;;;;;;;3.10;1.70;;;;;;;;;;4961118;28;20528;-55
2023/07/29 12:44:18;;;;;;;3.60;2.60;;;;;;;;;;4963003;28;20484;-54
2023/07/29 12:46:45;;;;;;;2.90;1.80;;;;;;;;;;4967581;28;20567;-54
2023/07/29 12:49:14;;;;;;;3.60;2.47;;;;;;;;;;4960670;28;20825;-54
2023/07/29 12:51:42;;;;;;;2.90;1.97;;;;;;;;;;4948165;28;20750;-54
2023/07/29 12:54:10;;;;;;;5.00;2.53;;;;;;;;;;4947909;29;20481;-55
2023/07/29 12:56:37;;;;;;;3.23;2.20;;;;;;;;;;4953573;28;20912;-55
2023/07/29 12:59:04;;;;;;;3.17;1.70;;;;;;;;;;4964135;28;21043;-55
2023/07/29 13:01:31;;;;;;;3.07;1.60;;;;;;;;;;4974376;28;20483;-54
2023/07/29 13:03:59;;;;;;;2.83;1.73;;;;;;;;;;4969924;28;20480;-54
2023/07/29 13:06:27;;;;;;;2.67;1.70;;;;;;;;;;4969281;28;20543;-54
2023/07/29 13:08:55;;;;;;;2.77;1.80;;;;;;;;;;4967916;28;20477;-55
2023/07/29 13:11:22;;;;;;;3.30;2.30;;;;;;;;;;4966090;28;20539;-54
2023/07/29 13:13:49;;;;;;;3.30;2.10;;;;;;;;;;4969841;28;20824;-53
2023/07/29 13:16:16;;;;;;;4.67;2.10;;;;;;;;;;4970409;28;20469;-55
2023/07/29 13:18:45;;;;;;;2.60;1.73;;;;;;;;;;4967202;28;20969;-55
2023/07/29 13:21:12;;;;;;;3.07;1.90;;;;;;;;;;4966272;28;20449;-54
2023/07/29 13:23:41;;;;;;;4.70;2.30;;;;;;;;;;4969129;28;20459;-55
2023/07/29 13:26:08;;;;;;;5.60;2.30;;;;;;;;;;4969970;28;20521;-55
2023/07/29 13:28:35;;;;;;;3.90;2.03;;;;;;;;;;4969500;28;20634;-55
2023/07/29 13:31:03;;;;;;;2.97;2.10;;;;;;;;;;4969396;28;20453;-55
2023/07/29 13:33:33;;;;;;;3.10;2.40;;;;;;;;;;4969679;28;20726;-55
2023/07/29 13:36:01;;;;;;;3.07;2.40;;;;;;;;;;4969669;28;20495;-55
2023/07/29 13:38:29;;;;;;;3.57;2.10;;;;;;;;;;4963012;28;20457;-54
2023/07/29 13:40:57;;;;;;;2.90;2.03;;;;;;;;;;4970032;28;20528;-54
2023/07/29 13:43:25;;;;;;;3.47;2.13;;;;;;;;;;4969785;28;20532;-53
2023/07/29 13:45:52;;;;;;;2.40;1.60;;;;;;;;;;4970375;28;20523;-53
2023/07/29 13:48:19;;;;;;;2.90;2.03;;;;;;;;;;4969302;28;20491;-53
2023/07/29 13:50:47;;;;;;;3.70;2.50;;;;;;;;;;4965000;28;20534;-52
2023/07/29 13:53:14;;;;;;;6.23;2.43;;;;;;;;;;4970048;28;20880;-53
2023/07/29 13:55:41;;;;;;;3.03;2.50;;;;;;;;;;4967026;28;20535;-55
2023/07/29 13:58:10;;;;;;;3.30;2.00;;;;;;;;;;4966776;28;20531;-53
2023/07/29 14:00:37;;;;;;;3.67;2.53;;;;;;;;;;4965705;28;20488;-55
2023/07/29 14:03:04;;;;;;;5.17;2.80;;;;;;;;;;4969023;28;20527;-53
2023/07/29 14:05:31;;;;;;;3.17;2.30;;;;;;;;;;4969906;28;20453;-53
2023/07/29 14:07:59;;;;;;;3.97;2.50;;;;;;;;;;4999670;23;21150;-59
2023/07/29 14:10:26;;;;;;;4.03;2.83;;;;;;;;;;4986688;28;20483;-60
2023/07/29 14:12:53;;;;;;;5.83;2.90;;;;;;;;;;4988622;28;20444;-59
2023/07/29 14:15:22;;;;;;;4.27;3.03;;;;;;;;;;4987742;28;20479;-60
2023/07/29 14:17:50;;;;;;;3.00;2.33;;;;;;;;;;4972598;28;20984;-59
2023/07/29 14:20:17;;;;;;;3.67;2.53;;;;;;;;;;4965910;28;20528;-59
2023/07/29 14:22:45;;;;;;;3.03;2.07;;;;;;;;;;4965728;28;20441;-58
2023/07/29 14:25:12;;;;;;;4.90;2.37;;;;;;;;;;4966744;28;20534;-59
2023/07/29 14:27:39;;;;;;;4.97;2.60;;;;;;;;;;4969055;28;20504;-59
2023/07/29 14:30:08;;;;;;;3.80;2.50;;;;;;;;;;4968735;28;20527;-58
2023/07/29 14:32:37;;;;;;;3.67;2.53;;;;;;;;;;4969118;28;21028;-59
2023/07/29 14:35:05;;;;;;;3.77;2.40;;;;;;;;;;4966388;28;20827;-58
2023/07/29 14:37:32;;;;;;;4.17;3.07;;;;;;;;;;4968220;28;20989;-59
2023/07/29 14:40:00;;;;;;;3.43;2.27;;;;;;;;;;4967399;28;20445;-59
2023/07/29 14:42:28;;;;;;;2.97;2.10;;;;;;;;;;4968156;28;20870;-59
2023/07/29 14:44:55;;;;;;;3.60;2.43;;;;;;;;;;4964799;28;20454;-59
2023/07/29 14:47:23;;;;;;;3.43;2.40;;;;;;;;;;4969881;28;20931;-59